sensor_id;sensor_type;location;lat;lon;timestamp;pressure;altitude;pressure_sealevel;temperature;humidity
68859;BME280;55864;49.238;8.092;2022-10-16T00:01:19;99221.38;;;16.34;94.47
68859;BME280;55864;49.238;8.092;2022-10-16T00:03:20;99221.19;;;16.35;94.41
68859;BME280;55864;49.238;8.092;2022-10-16T00:05:20;99219.31;;;16.29;94.52
68859;BME280;55864;49.238;8.092;2022-10-16T00:07:21;99223.78;;;16.29;94.90
68859;BME280;55864;49.238;8.092;2022-10-16T00:09:21;99219.94;;;16.31;94.46
68859;BME280;55864;49.238;8.092;2022-10-16T00:11:24;99208.31;;;16.32;94.81
68859;BME280;55864;49.238;8.092;2022-10-16T00:13:26;99211.50;;;16.28;94.86
68859;BME280;55864;49.238;8.092;2022-10-16T00:15:27;99221.03;;;16.22;95.46
68859;BME280;55864;49.238;8.092;2022-10-16T00:17:27;99222.69;;;16.23;95.77
68859;BME280;55864;49.238;8.092;2022-10-16T00:19:29;99235.19;;;16.15;96.08
68859;BME280;55864;49.238;8.092;2022-10-16T00:21:31;99241.25;;;16.09;96.85
68859;BME280;55864;49.238;8.092;2022-10-16T00:23:31;99238.69;;;16.00;97.65
68859;BME280;55864;49.238;8.092;2022-10-16T00:25:32;99232.28;;;16.10;97.09
68859;BME280;55864;49.238;8.092;2022-10-16T00:27:33;99245.00;;;16.14;96.86
68859;BME280;55864;49.238;8.092;2022-10-16T00:29:34;99245.25;;;16.05;97.14
68859;BME280;55864;49.238;8.092;2022-10-16T00:31:35;99242.88;;;16.10;97.02
68859;BME280;55864;49.238;8.092;2022-10-16T00:33:37;99247.09;;;16.04;97.34
68859;BME280;55864;49.238;8.092;2022-10-16T00:35:38;99251.22;;;16.07;97.39
68859;BME280;55864;49.238;8.092;2022-10-16T00:37:38;99240.88;;;16.12;97.11
68859;BME280;55864;49.238;8.092;2022-10-16T00:39:39;99243.25;;;16.07;96.92
68859;BME280;55864;49.238;8.092;2022-10-16T00:41:39;99238.31;;;16.03;97.39
68859;BME280;55864;49.238;8.092;2022-10-16T00:43:42;99243.53;;;16.12;96.82
68859;BME280;55864;49.238;8.092;2022-10-16T00:45:44;99239.22;;;16.11;96.93
68859;BME280;55864;49.238;8.092;2022-10-16T00:47:46;99242.25;;;16.08;96.91
68859;BME280;55864;49.238;8.092;2022-10-16T00:49:48;99242.31;;;15.99;97.83
68859;BME280;55864;49.238;8.092;2022-10-16T00:51:50;99247.34;;;16.09;97.92
68859;BME280;55864;49.238;8.092;2022-10-16T00:53:52;99241.13;;;16.02;97.63
68859;BME280;55864;49.238;8.092;2022-10-16T00:55:53;99253.03;;;16.06;97.34
68859;BME280;55864;49.238;8.092;2022-10-16T00:57:54;99248.28;;;16.16;96.89
68859;BME280;55864;49.238;8.092;2022-10-16T00:59:54;99248.19;;;16.10;97.05
68859;BME280;55864;49.238;8.092;2022-10-16T01:01:57;99250.09;;;16.16;96.63
68859;BME280;55864;49.238;8.092;2022-10-16T01:03:58;99253.84;;;16.07;97.04
68859;BME280;55864;49.238;8.092;2022-10-16T01:06:14;99253.03;;;16.06;97.02
68859;BME280;55864;49.238;8.092;2022-10-16T01:08:25;99251.56;;;16.03;97.03
68859;BME280;55864;49.238;8.092;2022-10-16T01:10:35;99259.16;;;16.07;96.94
68859;BME280;55864;49.238;8.092;2022-10-16T01:12:41;99250.56;;;16.05;96.96
68859;BME280;55864;49.238;8.092;2022-10-16T01:14:47;99249.72;;;16.04;96.76
68859;BME280;55864;49.238;8.092;2022-10-16T01:16:52;99248.72;;;16.05;96.85
68859;BME280;55864;49.238;8.092;2022-10-16T01:19:02;99247.63;;;15.99;97.04
68859;BME280;55864;49.238;8.092;2022-10-16T01:21:10;99254.84;;;16.06;96.39
68859;BME280;55864;49.238;8.092;2022-10-16T01:23:21;99256.41;;;16.00;97.16
68859;BME280;55864;49.238;8.092;2022-10-16T01:25:36;99257.31;;;15.92;97.73
68859;BME280;55864;49.238;8.092;2022-10-16T01:27:43;99258.66;;;15.74;99.10
68859;BME280;55864;49.238;8.092;2022-10-16T01:29:51;99259.44;;;15.60;100.00
68859;BME280;55864;49.238;8.092;2022-10-16T01:31:57;99250.41;;;15.69;100.00
68859;BME280;55864;49.238;8.092;2022-10-16T01:34:03;99245.47;;;15.66;100.00
68859;BME280;55864;49.238;8.092;2022-10-16T01:36:09;99261.28;;;15.59;100.00
68859;BME280;55864;49.238;8.092;2022-10-16T01:38:14;99262.44;;;15.57;100.00
68859;BME280;55864;49.238;8.092;2022-10-16T01:42:35;99251.47;;;15.60;100.00
68859;BME280;55864;49.238;8.092;2022-10-16T01:44:39;99250.19;;;15.56;100.00
68859;BME280;55864;49.238;8.092;2022-10-16T01:46:45;99260.44;;;15.59;100.00
68859;BME280;55864;49.238;8.092;2022-10-16T01:48:47;99258.31;;;15.54;100.00
68859;BME280;55864;49.238;8.092;2022-10-16T01:50:53;99271.69;;;15.61;100.00
68859;BME280;55864;49.238;8.092;2022-10-16T01:52:56;99271.22;;;15.57;100.00
68859;BME280;55864;49.238;8.092;2022-10-16T01:55:00;99270.19;;;15.58;100.00
68859;BME280;55864;49.238;8.092;2022-10-16T01:57:04;99266.63;;;15.51;100.00
68859;BME280;55864;49.238;8.092;2022-10-16T01:59:12;99270.00;;;15.60;100.00
68859;BME280;55864;49.238;8.092;2022-10-16T02:01:15;99278.09;;;15.66;100.00
68859;BME280;55864;49.238;8.092;2022-10-16T02:03:18;99268.66;;;15.64;100.00
68859;BME280;55864;49.238;8.092;2022-10-16T02:05:23;99259.53;;;15.66;100.00
68859;BME280;55864;49.238;8.092;2022-10-16T02:07:26;99263.03;;;15.67;99.91
68859;BME280;55864;49.238;8.092;2022-10-16T02:09:26;99266.13;;;15.70;99.42
68859;BME280;55864;49.238;8.092;2022-10-16T02:11:29;99262.28;;;15.73;99.43
68859;BME280;55864;49.238;8.092;2022-10-16T02:13:32;99256.97;;;15.73;99.05
68859;BME280;55864;49.238;8.092;2022-10-16T02:15:35;99259.34;;;15.68;99.56
68859;BME280;55864;49.238;8.092;2022-10-16T02:17:37;99269.13;;;15.67;99.78
68859;BME280;55864;49.238;8.092;2022-10-16T02:19:37;99269.84;;;15.61;99.95
68859;BME280;55864;49.238;8.092;2022-10-16T02:21:42;99273.63;;;15.67;99.69
68859;BME280;55864;49.238;8.092;2022-10-16T02:23:48;99274.41;;;15.67;99.86
68859;BME280;55864;49.238;8.092;2022-10-16T02:25:50;99274.22;;;15.69;100.00
68859;BME280;55864;49.238;8.092;2022-10-16T02:27:54;99264.47;;;15.69;99.79
68859;BME280;55864;49.238;8.092;2022-10-16T02:29:59;99262.00;;;15.68;100.00
68859;BME280;55864;49.238;8.092;2022-10-16T02:32:03;99273.44;;;15.68;99.98
68859;BME280;55864;49.238;8.092;2022-10-16T02:34:06;99275.44;;;15.66;99.92
68859;BME280;55864;49.238;8.092;2022-10-16T02:36:08;99273.44;;;15.68;100.00
68859;BME280;55864;49.238;8.092;2022-10-16T02:38:09;99269.97;;;15.68;99.83
68859;BME280;55864;49.238;8.092;2022-10-16T02:40:12;99264.47;;;15.69;99.56
68859;BME280;55864;49.238;8.092;2022-10-16T02:42:12;99265.31;;;15.70;99.41
68859;BME280;55864;49.238;8.092;2022-10-16T02:44:13;99267.75;;;15.71;99.65
68859;BME280;55864;49.238;8.092;2022-10-16T02:46:14;99281.00;;;15.71;99.78
68859;BME280;55864;49.238;8.092;2022-10-16T02:48:14;99282.03;;;15.70;99.85
68859;BME280;55864;49.238;8.092;2022-10-16T02:50:16;99280.53;;;15.68;100.00
68859;BME280;55864;49.238;8.092;2022-10-16T02:52:17;99287.47;;;15.69;100.00
68859;BME280;55864;49.238;8.092;2022-10-16T02:54:17;99295.91;;;15.72;100.00
68859;BME280;55864;49.238;8.092;2022-10-16T02:56:18;99282.31;;;15.75;99.94
68859;BME280;55864;49.238;8.092;2022-10-16T02:58:18;99282.47;;;15.74;99.98
68859;BME280;55864;49.238;8.092;2022-10-16T03:00:19;99291.91;;;15.76;99.65
68859;BME280;55864;49.238;8.092;2022-10-16T03:02:20;99294.56;;;15.76;99.87
68859;BME280;55864;49.238;8.092;2022-10-16T03:04:21;99288.63;;;15.74;99.84
68859;BME280;55864;49.238;8.092;2022-10-16T03:06:23;99296.06;;;15.71;99.46
68859;BME280;55864;49.238;8.092;2022-10-16T03:08:23;99287.97;;;15.72;99.92
68859;BME280;55864;49.238;8.092;2022-10-16T03:10:24;99277.91;;;15.68;100.00
68859;BME280;55864;49.238;8.092;2022-10-16T03:12:24;99272.06;;;15.72;99.37
68859;BME280;55864;49.238;8.092;2022-10-16T03:14:25;99278.53;;;15.70;99.27
68859;BME280;55864;49.238;8.092;2022-10-16T03:16:25;99271.88;;;15.74;99.32
68859;BME280;55864;49.238;8.092;2022-10-16T03:18:26;99277.25;;;15.66;99.63
68859;BME280;55864;49.238;8.092;2022-10-16T03:20:26;99278.84;;;15.52;100.00
68859;BME280;55864;49.238;8.092;2022-10-16T03:22:28;99276.84;;;15.54;100.00
68859;BME280;55864;49.238;8.092;2022-10-16T03:24:29;99280.97;;;15.57;100.00
68859;BME280;55864;49.238;8.092;2022-10-16T03:26:29;99287.09;;;15.57;100.00
68859;BME280;55864;49.238;8.092;2022-10-16T03:28:30;99292.78;;;15.69;99.60
68859;BME280;55864;49.238;8.092;2022-10-16T03:30:30;99288.69;;;15.66;99.75
68859;BME280;55864;49.238;8.092;2022-10-16T03:32:31;99282.19;;;15.69;99.12
68859;BME280;55864;49.238;8.092;2022-10-16T03:34:31;99285.38;;;15.64;100.00
68859;BME280;55864;49.238;8.092;2022-10-16T03:36:33;99284.09;;;15.60;99.95
68859;BME280;55864;49.238;8.092;2022-10-16T03:38:34;99290.78;;;15.48;100.00
68859;BME280;55864;49.238;8.092;2022-10-16T03:40:35;99285.69;;;15.47;100.00
68859;BME280;55864;49.238;8.092;2022-10-16T03:42:35;99282.84;;;15.48;100.00
68859;BME280;55864;49.238;8.092;2022-10-16T03:44:36;99284.47;;;15.57;100.00
68859;BME280;55864;49.238;8.092;2022-10-16T03:46:36;99283.91;;;15.62;100.00
68859;BME280;55864;49.238;8.092;2022-10-16T03:48:37;99289.38;;;15.60;100.00
68859;BME280;55864;49.238;8.092;2022-10-16T03:50:37;99289.84;;;15.64;100.00
68859;BME280;55864;49.238;8.092;2022-10-16T03:52:38;99297.50;;;15.59;100.00
68859;BME280;55864;49.238;8.092;2022-10-16T03:54:40;99291.00;;;15.61;100.00
68859;BME280;55864;49.238;8.092;2022-10-16T03:56:40;99288.22;;;15.63;100.00
68859;BME280;55864;49.238;8.092;2022-10-16T03:58:41;99288.88;;;15.65;100.00
68859;BME280;55864;49.238;8.092;2022-10-16T04:00:42;99286.03;;;15.66;100.00
68859;BME280;55864;49.238;8.092;2022-10-16T04:02:42;99278.91;;;15.67;100.00
68859;BME280;55864;49.238;8.092;2022-10-16T04:04:43;99284.56;;;15.64;100.00
68859;BME280;55864;49.238;8.092;2022-10-16T04:06:43;99293.50;;;15.63;100.00
68859;BME280;55864;49.238;8.092;2022-10-16T04:08:44;99299.44;;;15.65;100.00
68859;BME280;55864;49.238;8.092;2022-10-16T04:10:46;99306.56;;;15.64;100.00
68859;BME280;55864;49.238;8.092;2022-10-16T04:12:47;99314.31;;;15.66;100.00
68859;BME280;55864;49.238;8.092;2022-10-16T04:14:48;99310.56;;;15.60;100.00
68859;BME280;55864;49.238;8.092;2022-10-16T04:16:48;99318.16;;;15.63;100.00
68859;BME280;55864;49.238;8.092;2022-10-16T04:18:49;99317.50;;;15.61;100.00
68859;BME280;55864;49.238;8.092;2022-10-16T04:20:49;99310.94;;;15.57;100.00
68859;BME280;55864;49.238;8.092;2022-10-16T04:22:50;99312.19;;;15.61;100.00
68859;BME280;55864;49.238;8.092;2022-10-16T04:24:50;99306.91;;;15.61;100.00
68859;BME280;55864;49.238;8.092;2022-10-16T04:26:52;99304.44;;;15.60;100.00
68859;BME280;55864;49.238;8.092;2022-10-16T04:28:53;99312.56;;;15.58;100.00
68859;BME280;55864;49.238;8.092;2022-10-16T04:30:53;99319.03;;;15.56;100.00
68859;BME280;55864;49.238;8.092;2022-10-16T04:32:54;99311.59;;;15.59;100.00
68859;BME280;55864;49.238;8.092;2022-10-16T04:34:54;99316.22;;;15.57;100.00
68859;BME280;55864;49.238;8.092;2022-10-16T04:36:55;99320.50;;;15.58;100.00
68859;BME280;55864;49.238;8.092;2022-10-16T04:38:55;99314.06;;;15.61;100.00
68859;BME280;55864;49.238;8.092;2022-10-16T04:40:56;99318.22;;;15.55;100.00
68859;BME280;55864;49.238;8.092;2022-10-16T04:42:57;99319.88;;;15.56;100.00
68859;BME280;55864;49.238;8.092;2022-10-16T04:44:58;99316.22;;;15.57;100.00
68859;BME280;55864;49.238;8.092;2022-10-16T04:46:59;99307.00;;;15.53;100.00
68859;BME280;55864;49.238;8.092;2022-10-16T04:48:59;99302.88;;;15.51;100.00
68859;BME280;55864;49.238;8.092;2022-10-16T04:51:00;99308.34;;;15.49;100.00
68859;BME280;55864;49.238;8.092;2022-10-16T04:53:00;99322.41;;;15.50;100.00
68859;BME280;55864;49.238;8.092;2022-10-16T04:55:01;99329.69;;;15.48;100.00
68859;BME280;55864;49.238;8.092;2022-10-16T04:57:01;99324.88;;;15.51;100.00
68859;BME280;55864;49.238;8.092;2022-10-16T04:59:03;99316.94;;;15.51;99.98
68859;BME280;55864;49.238;8.092;2022-10-16T05:01:04;99314.09;;;15.53;100.00
68859;BME280;55864;49.238;8.092;2022-10-16T05:03:04;99312.09;;;15.55;99.33
68859;BME280;55864;49.238;8.092;2022-10-16T05:05:06;99312.19;;;15.61;98.78
68859;BME280;55864;49.238;8.092;2022-10-16T05:07:06;99302.75;;;15.44;99.80
68859;BME280;55864;49.238;8.092;2022-10-16T05:09:07;99307.72;;;15.39;100.00
68859;BME280;55864;49.238;8.092;2022-10-16T05:11:08;99309.88;;;15.44;100.00
68859;BME280;55864;49.238;8.092;2022-10-16T05:13:09;99308.88;;;15.37;100.00
68859;BME280;55864;49.238;8.092;2022-10-16T05:15:11;99317.84;;;15.36;100.00
68859;BME280;55864;49.238;8.092;2022-10-16T05:17:12;99300.38;;;15.27;100.00
68859;BME280;55864;49.238;8.092;2022-10-16T05:19:12;99315.13;;;15.21;100.00
68859;BME280;55864;49.238;8.092;2022-10-16T05:21:13;99321.72;;;15.25;100.00
68859;BME280;55864;49.238;8.092;2022-10-16T05:23:13;99332.19;;;15.10;100.00
68859;BME280;55864;49.238;8.092;2022-10-16T05:25:14;99329.56;;;15.10;100.00
68859;BME280;55864;49.238;8.092;2022-10-16T05:27:15;99336.28;;;15.21;100.00
68859;BME280;55864;49.238;8.092;2022-10-16T05:29:15;99332.63;;;15.22;100.00
68859;BME280;55864;49.238;8.092;2022-10-16T05:31:17;99340.16;;;15.33;100.00
68859;BME280;55864;49.238;8.092;2022-10-16T05:33:19;99339.41;;;15.25;100.00
68859;BME280;55864;49.238;8.092;2022-10-16T05:35:20;99349.63;;;15.28;100.00
68859;BME280;55864;49.238;8.092;2022-10-16T05:37:20;99353.28;;;15.27;100.00
68859;BME280;55864;49.238;8.092;2022-10-16T05:39:21;99345.88;;;15.22;100.00
68859;BME280;55864;49.238;8.092;2022-10-16T05:41:21;99344.13;;;15.06;100.00
68859;BME280;55864;49.238;8.092;2022-10-16T05:43:22;99353.59;;;15.01;100.00
68859;BME280;55864;49.238;8.092;2022-10-16T05:45:23;99350.44;;;15.05;100.00
68859;BME280;55864;49.238;8.092;2022-10-16T05:47:25;99342.28;;;15.15;100.00
68859;BME280;55864;49.238;8.092;2022-10-16T05:49:25;99323.63;;;15.31;100.00
68859;BME280;55864;49.238;8.092;2022-10-16T05:51:26;99326.47;;;15.30;100.00
68859;BME280;55864;49.238;8.092;2022-10-16T05:53:27;99329.59;;;15.33;100.00
68859;BME280;55864;49.238;8.092;2022-10-16T05:55:28;99342.16;;;15.31;100.00
68859;BME280;55864;49.238;8.092;2022-10-16T05:57:28;99341.50;;;15.29;100.00
68859;BME280;55864;49.238;8.092;2022-10-16T05:59:29;99335.50;;;15.43;100.00
68859;BME280;55864;49.238;8.092;2022-10-16T06:01:30;99335.97;;;15.47;100.00
68859;BME280;55864;49.238;8.092;2022-10-16T06:03:32;99347.59;;;15.46;100.00
68859;BME280;55864;49.238;8.092;2022-10-16T06:05:33;99347.78;;;15.44;100.00
68859;BME280;55864;49.238;8.092;2022-10-16T06:07:34;99342.94;;;15.48;100.00
68859;BME280;55864;49.238;8.092;2022-10-16T06:09:35;99331.69;;;15.46;100.00
68859;BME280;55864;49.238;8.092;2022-10-16T06:11:36;99330.22;;;15.43;100.00
68859;BME280;55864;49.238;8.092;2022-10-16T06:13:36;99341.81;;;15.42;100.00
68859;BME280;55864;49.238;8.092;2022-10-16T06:15:37;99338.75;;;15.53;100.00
68859;BME280;55864;49.238;8.092;2022-10-16T06:17:38;99353.34;;;15.49;100.00
68859;BME280;55864;49.238;8.092;2022-10-16T06:19:40;99342.41;;;15.52;100.00
68859;BME280;55864;49.238;8.092;2022-10-16T06:21:40;99345.41;;;15.49;100.00
68859;BME280;55864;49.238;8.092;2022-10-16T06:23:41;99347.03;;;15.50;100.00
68859;BME280;55864;49.238;8.092;2022-10-16T06:25:41;99349.03;;;15.48;100.00
68859;BME280;55864;49.238;8.092;2022-10-16T06:27:42;99360.63;;;15.47;100.00
68859;BME280;55864;49.238;8.092;2022-10-16T06:29:42;99359.66;;;15.40;100.00
68859;BME280;55864;49.238;8.092;2022-10-16T06:31:43;99363.66;;;15.44;100.00
68859;BME280;55864;49.238;8.092;2022-10-16T06:33:43;99361.94;;;15.51;100.00
68859;BME280;55864;49.238;8.092;2022-10-16T06:35:45;99361.00;;;15.44;100.00
68859;BME280;55864;49.238;8.092;2022-10-16T06:37:46;99366.22;;;15.52;100.00
68859;BME280;55864;49.238;8.092;2022-10-16T06:39:46;99373.97;;;15.54;100.00
68859;BME280;55864;49.238;8.092;2022-10-16T06:41:47;99378.47;;;15.53;100.00
68859;BME280;55864;49.238;8.092;2022-10-16T06:43:49;99386.25;;;15.55;100.00
68859;BME280;55864;49.238;8.092;2022-10-16T06:45:51;99384.75;;;15.52;100.00
68859;BME280;55864;49.238;8.092;2022-10-16T06:47:52;99382.47;;;15.49;100.00
68859;BME280;55864;49.238;8.092;2022-10-16T06:49:52;99384.66;;;15.46;100.00
68859;BME280;55864;49.238;8.092;2022-10-16T06:51:54;99387.97;;;15.40;100.00
68859;BME280;55864;49.238;8.092;2022-10-16T06:53:55;99388.59;;;15.50;100.00
68859;BME280;55864;49.238;8.092;2022-10-16T06:55:56;99394.22;;;15.47;100.00
68859;BME280;55864;49.238;8.092;2022-10-16T06:57:56;99390.94;;;15.45;100.00
68859;BME280;55864;49.238;8.092;2022-10-16T06:59:57;99398.88;;;15.37;100.00
68859;BME280;55864;49.238;8.092;2022-10-16T07:01:58;99396.41;;;15.35;100.00
68859;BME280;55864;49.238;8.092;2022-10-16T07:03:58;99399.38;;;15.40;100.00
68859;BME280;55864;49.238;8.092;2022-10-16T07:06:01;99395.97;;;15.24;100.00
68859;BME280;55864;49.238;8.092;2022-10-16T07:08:03;99414.50;;;15.24;100.00
68859;BME280;55864;49.238;8.092;2022-10-16T07:10:04;99416.81;;;15.27;100.00
68859;BME280;55864;49.238;8.092;2022-10-16T07:12:05;99418.81;;;15.25;100.00
68859;BME280;55864;49.238;8.092;2022-10-16T07:14:12;99422.94;;;15.27;100.00
68859;BME280;55864;49.238;8.092;2022-10-16T07:16:16;99430.50;;;15.38;100.00
68859;BME280;55864;49.238;8.092;2022-10-16T07:18:17;99422.88;;;15.43;100.00
68859;BME280;55864;49.238;8.092;2022-10-16T07:20:18;99430.13;;;15.49;100.00
68859;BME280;55864;49.238;8.092;2022-10-16T07:22:18;99432.22;;;15.54;100.00
68859;BME280;55864;49.238;8.092;2022-10-16T07:24:20;99436.38;;;15.56;100.00
68859;BME280;55864;49.238;8.092;2022-10-16T07:26:21;99436.53;;;15.55;100.00
68859;BME280;55864;49.238;8.092;2022-10-16T07:28:22;99436.50;;;15.63;100.00
68859;BME280;55864;49.238;8.092;2022-10-16T07:30:22;99437.44;;;15.70;100.00
68859;BME280;55864;49.238;8.092;2022-10-16T07:32:23;99443.63;;;15.62;100.00
68859;BME280;55864;49.238;8.092;2022-10-16T07:34:26;99448.19;;;15.76;100.00
68859;BME280;55864;49.238;8.092;2022-10-16T07:36:26;99445.56;;;15.68;100.00
68859;BME280;55864;49.238;8.092;2022-10-16T07:38:27;99447.34;;;15.76;100.00
68859;BME280;55864;49.238;8.092;2022-10-16T07:40:29;99447.81;;;15.79;100.00
68859;BME280;55864;49.238;8.092;2022-10-16T07:42:30;99449.13;;;15.83;100.00
68859;BME280;55864;49.238;8.092;2022-10-16T07:44:31;99459.16;;;15.88;100.00
68859;BME280;55864;49.238;8.092;2022-10-16T07:46:31;99458.38;;;15.87;100.00
68859;BME280;55864;49.238;8.092;2022-10-16T07:48:34;99461.44;;;15.76;100.00
68859;BME280;55864;49.238;8.092;2022-10-16T07:50:34;99464.41;;;15.73;100.00
68859;BME280;55864;49.238;8.092;2022-10-16T07:52:35;99463.19;;;15.84;100.00
68859;BME280;55864;49.238;8.092;2022-10-16T07:54:35;99462.03;;;15.78;100.00
68859;BME280;55864;49.238;8.092;2022-10-16T07:56:37;99463.25;;;15.76;100.00
68859;BME280;55864;49.238;8.092;2022-10-16T07:58:38;99463.41;;;15.74;100.00
68859;BME280;55864;49.238;8.092;2022-10-16T08:00:39;99464.06;;;15.76;100.00
68859;BME280;55864;49.238;8.092;2022-10-16T08:02:40;99470.66;;;15.80;100.00
68859;BME280;55864;49.238;8.092;2022-10-16T08:04:40;99479.25;;;15.82;100.00
68859;BME280;55864;49.238;8.092;2022-10-16T08:06:41;99487.16;;;15.90;100.00
68859;BME280;55864;49.238;8.092;2022-10-16T08:08:41;99481.16;;;15.96;100.00
68859;BME280;55864;49.238;8.092;2022-10-16T08:10:42;99485.63;;;15.96;100.00
68859;BME280;55864;49.238;8.092;2022-10-16T08:12:44;99486.63;;;15.95;100.00
68859;BME280;55864;49.238;8.092;2022-10-16T08:14:44;99484.31;;;15.92;100.00
68859;BME280;55864;49.238;8.092;2022-10-16T08:16:45;99488.69;;;16.08;100.00
68859;BME280;55864;49.238;8.092;2022-10-16T08:18:46;99480.22;;;16.35;100.00
68859;BME280;55864;49.238;8.092;2022-10-16T08:20:46;99494.56;;;16.48;100.00
68859;BME280;55864;49.238;8.092;2022-10-16T08:22:47;99490.16;;;16.55;100.00
68859;BME280;55864;49.238;8.092;2022-10-16T08:24:47;99491.53;;;16.51;100.00
68859;BME280;55864;49.238;8.092;2022-10-16T08:26:48;99506.63;;;16.65;99.67
68859;BME280;55864;49.238;8.092;2022-10-16T08:28:50;99500.72;;;16.41;100.00
68859;BME280;55864;49.238;8.092;2022-10-16T08:30:51;99502.34;;;16.42;100.00
68859;BME280;55864;49.238;8.092;2022-10-16T08:32:51;99508.13;;;16.45;100.00
68859;BME280;55864;49.238;8.092;2022-10-16T08:34:52;99509.19;;;16.36;100.00
68859;BME280;55864;49.238;8.092;2022-10-16T08:36:53;99513.97;;;16.41;100.00
68859;BME280;55864;49.238;8.092;2022-10-16T08:38:53;99521.63;;;16.36;100.00
68859;BME280;55864;49.238;8.092;2022-10-16T08:40:59;99531.22;;;16.37;100.00
68859;BME280;55864;49.238;8.092;2022-10-16T08:43:28;99539.19;;;16.37;100.00
68859;BME280;55864;49.238;8.092;2022-10-16T08:45:43;99544.78;;;16.42;100.00
68859;BME280;55864;49.238;8.092;2022-10-16T08:47:49;99544.19;;;16.54;100.00
68859;BME280;55864;49.238;8.092;2022-10-16T08:49:57;99545.97;;;16.62;100.00
68859;BME280;55864;49.238;8.092;2022-10-16T08:51:58;99544.09;;;16.85;100.00
68859;BME280;55864;49.238;8.092;2022-10-16T08:54:01;99544.66;;;16.80;100.00
68859;BME280;55864;49.238;8.092;2022-10-16T08:56:03;99539.03;;;17.13;100.00
68859;BME280;55864;49.238;8.092;2022-10-16T08:58:11;99539.38;;;17.24;99.85
68859;BME280;55864;49.238;8.092;2022-10-16T09:00:13;99539.31;;;17.32;99.62
68859;BME280;55864;49.238;8.092;2022-10-16T09:02:24;99555.63;;;17.29;98.82
68859;BME280;55864;49.238;8.092;2022-10-16T09:04:54;99546.38;;;17.54;97.09
68859;BME280;55864;49.238;8.092;2022-10-16T09:06:58;99548.31;;;17.60;95.71
68859;BME280;55864;49.238;8.092;2022-10-16T09:09:24;99548.53;;;17.95;94.68
68859;BME280;55864;49.238;8.092;2022-10-16T09:11:36;99557.41;;;18.23;93.44
68859;BME280;55864;49.238;8.092;2022-10-16T09:13:49;99559.19;;;18.51;91.08
68859;BME280;55864;49.238;8.092;2022-10-16T09:15:56;99565.56;;;18.78;90.97
68859;BME280;55864;49.238;8.092;2022-10-16T09:18:06;99563.66;;;19.21;90.08
68859;BME280;55864;49.238;8.092;2022-10-16T09:20:30;99565.91;;;19.51;86.05
68859;BME280;55864;49.238;8.092;2022-10-16T09:22:32;99566.59;;;19.60;82.76
68859;BME280;55864;49.238;8.092;2022-10-16T09:24:33;99564.16;;;19.65;81.29
68859;BME280;55864;49.238;8.092;2022-10-16T09:26:34;99565.19;;;19.70;81.34
68859;BME280;55864;49.238;8.092;2022-10-16T09:28:34;99572.06;;;19.52;83.04
68859;BME280;55864;49.238;8.092;2022-10-16T09:30:35;99568.72;;;19.37;81.31
68859;BME280;55864;49.238;8.092;2022-10-16T09:32:38;99570.53;;;19.36;80.30
68859;BME280;55864;49.238;8.092;2022-10-16T09:34:43;99574.50;;;19.47;80.41
68859;BME280;55864;49.238;8.092;2022-10-16T09:36:44;99585.88;;;19.62;79.49
68859;BME280;55864;49.238;8.092;2022-10-16T09:38:46;99585.63;;;19.57;78.79
68859;BME280;55864;49.238;8.092;2022-10-16T09:40:46;99590.22;;;19.69;78.47
68859;BME280;55864;49.238;8.092;2022-10-16T09:42:47;99591.69;;;19.79;78.80
68859;BME280;55864;49.238;8.092;2022-10-16T09:44:49;99597.13;;;20.05;77.44
68859;BME280;55864;49.238;8.092;2022-10-16T09:47:01;99600.06;;;20.16;76.79
68859;BME280;55864;49.238;8.092;2022-10-16T09:49:03;99596.97;;;20.13;76.79
68859;BME280;55864;49.238;8.092;2022-10-16T09:51:23;99605.72;;;19.94;76.47
68859;BME280;55864;49.238;8.092;2022-10-16T09:53:26;99597.38;;;19.69;76.13
68859;BME280;55864;49.238;8.092;2022-10-16T09:55:48;99596.75;;;19.67;77.00
68859;BME280;55864;49.238;8.092;2022-10-16T09:57:49;99590.16;;;19.63;77.11
68859;BME280;55864;49.238;8.092;2022-10-16T09:59:51;99590.03;;;19.71;78.52
68859;BME280;55864;49.238;8.092;2022-10-16T10:01:53;99592.47;;;19.73;78.11
68859;BME280;55864;49.238;8.092;2022-10-16T10:03:56;99585.94;;;19.75;77.68
68859;BME280;55864;49.238;8.092;2022-10-16T10:05:57;99591.97;;;19.90;76.69
68859;BME280;55864;49.238;8.092;2022-10-16T10:08:00;99588.75;;;20.08;76.51
68859;BME280;55864;49.238;8.092;2022-10-16T10:10:04;99578.81;;;20.36;75.18
68859;BME280;55864;49.238;8.092;2022-10-16T10:12:14;99588.06;;;20.40;76.13
68859;BME280;55864;49.238;8.092;2022-10-16T10:14:31;99590.75;;;20.53;75.83
68859;BME280;55864;49.238;8.092;2022-10-16T10:16:34;99591.97;;;20.50;73.68
68859;BME280;55864;49.238;8.092;2022-10-16T10:18:34;99592.41;;;20.67;75.71
68859;BME280;55864;49.238;8.092;2022-10-16T10:20:36;99588.53;;;20.83;72.61
68859;BME280;55864;49.238;8.092;2022-10-16T10:22:41;99592.44;;;20.93;74.19
68859;BME280;55864;49.238;8.092;2022-10-16T10:24:43;99600.66;;;20.98;71.98
68859;BME280;55864;49.238;8.092;2022-10-16T10:26:52;99595.34;;;21.24;73.35
68859;BME280;55864;49.238;8.092;2022-10-16T10:29:00;99599.41;;;21.46;72.97
68859;BME280;55864;49.238;8.092;2022-10-16T10:31:10;99587.88;;;21.52;71.57
68859;BME280;55864;49.238;8.092;2022-10-16T10:33:20;99592.59;;;21.64;71.41
68859;BME280;55864;49.238;8.092;2022-10-16T10:35:29;99589.31;;;21.62;69.92
68859;BME280;55864;49.238;8.092;2022-10-16T10:37:43;99599.38;;;21.60;69.81
68859;BME280;55864;49.238;8.092;2022-10-16T10:39:57;99591.19;;;21.54;71.06
68859;BME280;55864;49.238;8.092;2022-10-16T10:42:11;99587.06;;;21.59;68.96
68859;BME280;55864;49.238;8.092;2022-10-16T10:44:20;99595.28;;;21.50;69.38
68859;BME280;55864;49.238;8.092;2022-10-16T10:46:32;99594.50;;;21.43;70.12
68859;BME280;55864;49.238;8.092;2022-10-16T10:49:13;99600.25;;;21.40;70.31